EDT,Max TemperatureF,Mean TemperatureF,Min TemperatureF,Max Dew PointF,MeanDew PointF,Min DewpointF,Max Humidity, Mean Humidity, Min Humidity, Max Sea Level PressureIn, Mean Sea Level PressureIn, Min Sea Level PressureIn, Max VisibilityMiles, Mean VisibilityMiles, Min VisibilityMiles, Max Wind SpeedMPH, Mean Wind SpeedMPH, Max Gust SpeedMPH,PrecipitationIn, CloudCover, Events, WindDirDegrees
2013-4-1,48,40,32,40,22,13,76,54,31,30.12,29.96,29.75,10,10,9,28,12,32,T,5,,305
2013-4-2,45,35,25,16,14,12,63,46,29,30.27,30.20,30.12,10,10,10,21,9,25,0.00,2,,294
2013-4-3,47,37,26,15,12,10,57,41,25,30.43,30.36,30.27,10,10,10,22,8,26,0.00,1,,357
2013-4-4,54,41,28,23,14,8,49,34,19,30.40,30.18,30.00,10,10,10,12,6,17,0.00,6,,126
2013-4-5,58,44,30,31,24,19,78,54,29,30.17,30.05,29.97,10,10,10,20,6,25,0.00,2,,17
2013-4-6,62,47,32,22,16,10,56,37,17,30.28,30.14,29.93,10,10,10,16,9,21,0.00,5,,127
2013-4-7,74,64,53,43,36,20,47,37,26,29.99,29.91,29.86,10,10,10,26,14,33,T,5,,223
2013-4-8,73,63,53,53,48,40,83,64,44,29.99,29.94,29.88,10,10,10,25,12,33,T,6,Rain,187
2013-4-9,83,69,54,55,53,50,89,63,36,30.08,29.99,29.90,10,10,10,28,11,35,T,4,,197
2013-4-10,82,72,61,64,59,55,90,69,47,29.94,29.89,29.78,10,9,1,41,13,54,0.22,6,Rain-Thunderstorm,221
2013-4-11,69,62,54,63,59,53,100,88,76,29.87,29.71,29.53,10,6,1,21,7,24,0.71,7,Rain,351
2013-4-12,60,47,34,61,46,32,93,75,56,29.91,29.65,29.48,10,8,2,23,14,28,0.20,8,Rain,254
2013-4-13,54,46,37,36,34,31,70,58,46,30.06,29.96,29.92,10,10,10,22,12,28,0.00,6,,264
2013-4-14,66,51,36,39,36,32,85,61,37,30.13,30.03,29.93,10,10,7,14,6,20,0.00,6,,112
2013-4-15,70,60,49,52,47,37,66,55,44,30.02,29.98,29.91,10,10,10,21,10,25,0.00,4,,160
2013-4-16,79,68,57,61,57,50,100,76,52,30.18,30.09,29.98,10,8,1,29,10,33,0.61,6,Rain-Thunderstorm,246
2013-4-17,67,61,54,59,56,54,100,89,78,30.23,30.15,30.01,10,8,5,21,8,28,0.09,7,Rain,73
2013-4-18,86,74,61,63,57,52,90,61,32,30.00,29.83,29.65,10,10,9,35,15,43,0.00,5,,174
2013-4-19,74,58,41,61,44,28,100,73,46,29.94,29.65,29.42,10,8,2,32,20,41,0.37,8,Rain,238
2013-4-20,49,42,35,34,28,23,85,62,38,30.42,30.16,29.96,10,10,10,24,12,30,0.01,5,Rain,278
2013-4-21,55,43,31,27,25,21,78,54,29,30.58,30.49,30.43,10,10,10,13,5,20,0.00,4,,60
2013-4-22,69,54,39,38,32,23,54,42,30,30.42,30.29,30.17,10,10,10,13,6,17,0.00,1,,112
2013-4-23,72,60,47,49,38,29,53,44,34,30.17,30.06,29.89,10,10,8,21,10,26,T,4,Rain,165
2013-4-24,65,51,37,56,47,33,100,76,52,30.21,29.89,29.78,10,7,2,25,12,31,0.63,7,Rain,242
2013-4-25,57,45,33,36,32,22,100,67,34,30.38,30.27,30.23,10,9,5,26,9,32,0.00,2,,236
2013-4-26,62,48,33,36,31,29,85,57,29,30.48,30.42,30.37,10,10,10,12,2,15,0.00,3,,123
2013-4-27,72,56,40,44,37,32,85,55,25,30.37,30.26,30.10,10,10,10,16,7,21,0.00,6,,140
2013-4-28,65,60,54,59,55,45,100,79,57,30.10,29.93,29.84,10,8,3,15,8,20,0.81,8,Rain,143
2013-4-29,65,60,55,58,55,53,100,84,67,29.99,29.95,29.88,10,8,2,13,5,16,0.01,7,Rain,210
2013-4-30,76,62,47,56,53,48,100,73,46,30.08,30.04,29.99,10,9,4,13,4,17,0.00,1,Fog,135